sensor_id;sensor_type;location;lat;lon;timestamp;temperature;humidity
25951;DHT22;13748;52.240;6.002;2023-02-19T00:00:08;10.70;99.90
25951;DHT22;13748;52.240;6.002;2023-02-19T00:02:35;10.70;99.90
25951;DHT22;13748;52.240;6.002;2023-02-19T00:05:02;10.70;99.90
25951;DHT22;13748;52.240;6.002;2023-02-19T00:07:29;10.70;99.90
25951;DHT22;13748;52.240;6.002;2023-02-19T00:09:55;10.70;99.90
25951;DHT22;13748;52.240;6.002;2023-02-19T00:12:22;10.70;99.90
25951;DHT22;13748;52.240;6.002;2023-02-19T00:14:48;10.70;99.90
25951;DHT22;13748;52.240;6.002;2023-02-19T00:17:15;10.70;99.90
25951;DHT22;13748;52.240;6.002;2023-02-19T00:19:42;10.70;99.90
25951;DHT22;13748;52.240;6.002;2023-02-19T00:22:09;10.70;99.90
25951;DHT22;13748;52.240;6.002;2023-02-19T00:24:35;10.70;99.90
25951;DHT22;13748;52.240;6.002;2023-02-19T00:27:03;10.70;99.90
25951;DHT22;13748;52.240;6.002;2023-02-19T00:29:30;10.70;99.90
25951;DHT22;13748;52.240;6.002;2023-02-19T00:31:56;10.70;99.90
25951;DHT22;13748;52.240;6.002;2023-02-19T00:34:23;10.60;99.90
25951;DHT22;13748;52.240;6.002;2023-02-19T00:36:50;10.60;99.90
25951;DHT22;13748;52.240;6.002;2023-02-19T00:39:17;10.70;99.90
25951;DHT22;13748;52.240;6.002;2023-02-19T00:41:44;10.70;99.90
25951;DHT22;13748;52.240;6.002;2023-02-19T00:44:12;10.70;99.90
25951;DHT22;13748;52.240;6.002;2023-02-19T00:46:42;10.70;99.90
25951;DHT22;13748;52.240;6.002;2023-02-19T00:49:17;10.70;99.90
25951;DHT22;13748;52.240;6.002;2023-02-19T00:51:44;10.80;99.90
25951;DHT22;13748;52.240;6.002;2023-02-19T00:54:11;10.80;99.90
25951;DHT22;13748;52.240;6.002;2023-02-19T00:56:38;10.70;99.90
25951;DHT22;13748;52.240;6.002;2023-02-19T00:59:05;10.70;99.90
25951;DHT22;13748;52.240;6.002;2023-02-19T01:01:32;10.70;99.90
25951;DHT22;13748;52.240;6.002;2023-02-19T01:03:59;10.70;99.90
25951;DHT22;13748;52.240;6.002;2023-02-19T01:06:25;10.70;99.90
25951;DHT22;13748;52.240;6.002;2023-02-19T01:08:55;10.70;99.90
25951;DHT22;13748;52.240;6.002;2023-02-19T01:11:22;10.70;99.90
25951;DHT22;13748;52.240;6.002;2023-02-19T01:13:49;10.70;99.90
25951;DHT22;13748;52.240;6.002;2023-02-19T01:16:18;10.60;99.90
25951;DHT22;13748;52.240;6.002;2023-02-19T01:18:47;10.70;99.90
25951;DHT22;13748;52.240;6.002;2023-02-19T01:21:19;10.60;99.90
25951;DHT22;13748;52.240;6.002;2023-02-19T01:23:47;10.60;99.90
25951;DHT22;13748;52.240;6.002;2023-02-19T01:26:17;10.60;99.90
25951;DHT22;13748;52.240;6.002;2023-02-19T01:28:44;10.60;99.90
25951;DHT22;13748;52.240;6.002;2023-02-19T01:31:13;10.50;99.90
25951;DHT22;13748;52.240;6.002;2023-02-19T01:33:50;10.50;99.90
25951;DHT22;13748;52.240;6.002;2023-02-19T01:36:17;10.50;99.90
25951;DHT22;13748;52.240;6.002;2023-02-19T01:38:44;10.50;99.90
25951;DHT22;13748;52.240;6.002;2023-02-19T01:41:21;10.50;99.90
25951;DHT22;13748;52.240;6.002;2023-02-19T01:46:43;10.50;99.90
25951;DHT22;13748;52.240;6.002;2023-02-19T01:49:14;10.40;99.90
25951;DHT22;13748;52.240;6.002;2023-02-19T01:51:46;10.40;99.90
25951;DHT22;13748;52.240;6.002;2023-02-19T01:54:16;10.40;99.90
25951;DHT22;13748;52.240;6.002;2023-02-19T01:56:47;10.40;99.90
25951;DHT22;13748;52.240;6.002;2023-02-19T01:59:15;10.30;99.90
25951;DHT22;13748;52.240;6.002;2023-02-19T02:01:42;10.30;99.90
25951;DHT22;13748;52.240;6.002;2023-02-19T02:04:11;10.30;99.90
25951;DHT22;13748;52.240;6.002;2023-02-19T02:06:44;10.30;99.90
25951;DHT22;13748;52.240;6.002;2023-02-19T02:09:15;10.30;99.90
25951;DHT22;13748;52.240;6.002;2023-02-19T02:12:01;10.30;99.90
25951;DHT22;13748;52.240;6.002;2023-02-19T02:14:30;10.30;99.90
25951;DHT22;13748;52.240;6.002;2023-02-19T02:17:29;10.30;99.90
25951;DHT22;13748;52.240;6.002;2023-02-19T02:20:26;10.30;99.90
25951;DHT22;13748;52.240;6.002;2023-02-19T02:31:27;10.20;99.90
25951;DHT22;13748;52.240;6.002;2023-02-19T02:34:18;10.20;99.90
25951;DHT22;13748;52.240;6.002;2023-02-19T02:36:49;10.20;99.90
25951;DHT22;13748;52.240;6.002;2023-02-19T02:39:19;10.30;99.90
25951;DHT22;13748;52.240;6.002;2023-02-19T02:41:55;10.30;99.90
25951;DHT22;13748;52.240;6.002;2023-02-19T02:44:41;10.30;99.90
25951;DHT22;13748;52.240;6.002;2023-02-19T02:47:31;10.30;99.90
25951;DHT22;13748;52.240;6.002;2023-02-19T02:50:19;10.30;99.90
25951;DHT22;13748;52.240;6.002;2023-02-19T02:52:51;10.30;99.90
25951;DHT22;13748;52.240;6.002;2023-02-19T02:55:43;10.30;99.90
25951;DHT22;13748;52.240;6.002;2023-02-19T02:58:12;10.30;99.90
25951;DHT22;13748;52.240;6.002;2023-02-19T03:00:42;10.30;99.90
25951;DHT22;13748;52.240;6.002;2023-02-19T03:03:30;10.20;99.90
25951;DHT22;13748;52.240;6.002;2023-02-19T03:06:03;10.20;99.90
25951;DHT22;13748;52.240;6.002;2023-02-19T03:08:47;10.20;99.90
25951;DHT22;13748;52.240;6.002;2023-02-19T03:11:15;10.20;99.90
25951;DHT22;13748;52.240;6.002;2023-02-19T03:14:04;10.30;99.90
25951;DHT22;13748;52.240;6.002;2023-02-19T03:16:50;10.20;99.90
25951;DHT22;13748;52.240;6.002;2023-02-19T03:19:42;10.20;99.90
25951;DHT22;13748;52.240;6.002;2023-02-19T03:22:29;10.20;99.90
25951;DHT22;13748;52.240;6.002;2023-02-19T03:25:01;10.20;99.90
25951;DHT22;13748;52.240;6.002;2023-02-19T03:27:50;10.20;99.90
25951;DHT22;13748;52.240;6.002;2023-02-19T03:30:21;10.20;99.90
25951;DHT22;13748;52.240;6.002;2023-02-19T03:36:02;10.20;99.90
25951;DHT22;13748;52.240;6.002;2023-02-19T03:38:43;10.20;99.90
25951;DHT22;13748;52.240;6.002;2023-02-19T03:41:29;10.10;99.90
25951;DHT22;13748;52.240;6.002;2023-02-19T03:46:45;10.10;99.90
25951;DHT22;13748;52.240;6.002;2023-02-19T03:49:18;10.10;99.90
25951;DHT22;13748;52.240;6.002;2023-02-19T03:51:54;10.10;99.90
25951;DHT22;13748;52.240;6.002;2023-02-19T03:55:06;10.10;99.90
25951;DHT22;13748;52.240;6.002;2023-02-19T03:57:51;10.10;99.90
25951;DHT22;13748;52.240;6.002;2023-02-19T04:00:31;10.10;99.90
25951;DHT22;13748;52.240;6.002;2023-02-19T04:03:06;10.10;99.90
25951;DHT22;13748;52.240;6.002;2023-02-19T04:05:38;10.10;99.90
25951;DHT22;13748;52.240;6.002;2023-02-19T04:08:19;10.10;99.90
25951;DHT22;13748;52.240;6.002;2023-02-19T04:10:49;10.10;99.90
25951;DHT22;13748;52.240;6.002;2023-02-19T04:13:26;10.10;99.90
25951;DHT22;13748;52.240;6.002;2023-02-19T04:15:56;10.10;99.90
25951;DHT22;13748;52.240;6.002;2023-02-19T04:18:27;10.10;99.90
25951;DHT22;13748;52.240;6.002;2023-02-19T04:20:55;10.00;99.90
25951;DHT22;13748;52.240;6.002;2023-02-19T04:23:25;10.10;99.90
25951;DHT22;13748;52.240;6.002;2023-02-19T04:25:57;10.00;99.90
25951;DHT22;13748;52.240;6.002;2023-02-19T04:28:24;10.00;99.90
25951;DHT22;13748;52.240;6.002;2023-02-19T04:30:51;10.00;99.90
25951;DHT22;13748;52.240;6.002;2023-02-19T04:33:18;10.00;99.90
25951;DHT22;13748;52.240;6.002;2023-02-19T04:35:45;10.00;99.90
25951;DHT22;13748;52.240;6.002;2023-02-19T04:38:12;10.00;99.90
25951;DHT22;13748;52.240;6.002;2023-02-19T04:40:39;10.00;99.90
25951;DHT22;13748;52.240;6.002;2023-02-19T04:43:06;9.90;99.90
25951;DHT22;13748;52.240;6.002;2023-02-19T04:45:33;9.90;99.90
25951;DHT22;13748;52.240;6.002;2023-02-19T04:48:00;9.90;99.90
25951;DHT22;13748;52.240;6.002;2023-02-19T04:50:26;9.90;99.90
25951;DHT22;13748;52.240;6.002;2023-02-19T04:52:53;9.90;99.90
25951;DHT22;13748;52.240;6.002;2023-02-19T04:55:20;9.90;99.90
25951;DHT22;13748;52.240;6.002;2023-02-19T04:57:46;9.90;99.90
25951;DHT22;13748;52.240;6.002;2023-02-19T05:00:14;9.90;99.90
25951;DHT22;13748;52.240;6.002;2023-02-19T05:02:40;9.90;99.90
25951;DHT22;13748;52.240;6.002;2023-02-19T05:05:08;9.90;99.90
25951;DHT22;13748;52.240;6.002;2023-02-19T05:07:35;9.90;99.90
25951;DHT22;13748;52.240;6.002;2023-02-19T05:10:02;9.80;99.90
25951;DHT22;13748;52.240;6.002;2023-02-19T05:12:29;9.80;99.90
25951;DHT22;13748;52.240;6.002;2023-02-19T05:14:56;9.80;99.90
25951;DHT22;13748;52.240;6.002;2023-02-19T05:17:23;9.80;99.90
25951;DHT22;13748;52.240;6.002;2023-02-19T05:19:51;9.80;99.90
25951;DHT22;13748;52.240;6.002;2023-02-19T05:22:17;9.80;99.90
25951;DHT22;13748;52.240;6.002;2023-02-19T05:24:44;9.70;99.90
25951;DHT22;13748;52.240;6.002;2023-02-19T05:27:12;9.80;99.90
25951;DHT22;13748;52.240;6.002;2023-02-19T05:29:38;9.80;99.90
25951;DHT22;13748;52.240;6.002;2023-02-19T05:32:05;9.80;99.90
25951;DHT22;13748;52.240;6.002;2023-02-19T05:34:32;9.70;99.90
25951;DHT22;13748;52.240;6.002;2023-02-19T05:36:59;9.70;99.90
25951;DHT22;13748;52.240;6.002;2023-02-19T05:39:25;9.80;99.90
25951;DHT22;13748;52.240;6.002;2023-02-19T05:41:52;9.70;99.90
25951;DHT22;13748;52.240;6.002;2023-02-19T05:44:19;9.70;99.90
25951;DHT22;13748;52.240;6.002;2023-02-19T05:46:45;9.70;99.90
25951;DHT22;13748;52.240;6.002;2023-02-19T05:49:12;9.70;99.90
25951;DHT22;13748;52.240;6.002;2023-02-19T05:51:39;9.70;99.90
25951;DHT22;13748;52.240;6.002;2023-02-19T05:54:06;9.70;99.90
25951;DHT22;13748;52.240;6.002;2023-02-19T05:56:39;9.70;99.90
25951;DHT22;13748;52.240;6.002;2023-02-19T05:59:21;9.70;99.90
25951;DHT22;13748;52.240;6.002;2023-02-19T06:01:50;9.60;99.90
25951;DHT22;13748;52.240;6.002;2023-02-19T06:04:17;9.60;99.90
25951;DHT22;13748;52.240;6.002;2023-02-19T06:06:46;9.60;99.90
25951;DHT22;13748;52.240;6.002;2023-02-19T06:09:13;9.70;99.90
25951;DHT22;13748;52.240;6.002;2023-02-19T06:11:39;9.60;99.90
25951;DHT22;13748;52.240;6.002;2023-02-19T06:14:06;9.60;99.90
25951;DHT22;13748;52.240;6.002;2023-02-19T06:16:33;9.60;99.90
25951;DHT22;13748;52.240;6.002;2023-02-19T06:19:03;9.60;99.90
25951;DHT22;13748;52.240;6.002;2023-02-19T06:21:30;9.60;99.90
25951;DHT22;13748;52.240;6.002;2023-02-19T06:23:57;9.60;99.90
25951;DHT22;13748;52.240;6.002;2023-02-19T06:26:24;9.60;99.90
25951;DHT22;13748;52.240;6.002;2023-02-19T06:28:52;9.60;99.90
25951;DHT22;13748;52.240;6.002;2023-02-19T06:31:20;9.60;99.90
25951;DHT22;13748;52.240;6.002;2023-02-19T06:33:47;9.60;99.90
25951;DHT22;13748;52.240;6.002;2023-02-19T06:36:18;9.60;99.90
25951;DHT22;13748;52.240;6.002;2023-02-19T06:38:44;9.60;99.90
25951;DHT22;13748;52.240;6.002;2023-02-19T06:41:12;9.60;99.90
25951;DHT22;13748;52.240;6.002;2023-02-19T06:43:39;9.60;99.90
25951;DHT22;13748;52.240;6.002;2023-02-19T06:46:06;9.60;99.90
25951;DHT22;13748;52.240;6.002;2023-02-19T06:48:34;9.60;99.90
25951;DHT22;13748;52.240;6.002;2023-02-19T06:51:01;9.60;99.90
25951;DHT22;13748;52.240;6.002;2023-02-19T06:53:28;9.60;99.90
25951;DHT22;13748;52.240;6.002;2023-02-19T06:56:04;9.50;99.90
25951;DHT22;13748;52.240;6.002;2023-02-19T06:58:31;9.50;99.90
25951;DHT22;13748;52.240;6.002;2023-02-19T07:00:58;9.50;99.90
25951;DHT22;13748;52.240;6.002;2023-02-19T07:03:25;9.50;99.90
25951;DHT22;13748;52.240;6.002;2023-02-19T07:05:52;9.50;99.90
25951;DHT22;13748;52.240;6.002;2023-02-19T07:08:19;9.50;99.90
25951;DHT22;13748;52.240;6.002;2023-02-19T07:10:53;9.50;99.90
25951;DHT22;13748;52.240;6.002;2023-02-19T07:13:25;9.50;99.90
25951;DHT22;13748;52.240;6.002;2023-02-19T07:16:01;9.50;99.90
25951;DHT22;13748;52.240;6.002;2023-02-19T07:18:29;9.50;99.90
25951;DHT22;13748;52.240;6.002;2023-02-19T07:21:07;9.50;99.90
25951;DHT22;13748;52.240;6.002;2023-02-19T07:23:35;9.50;99.90
25951;DHT22;13748;52.240;6.002;2023-02-19T07:26:02;9.50;99.90
25951;DHT22;13748;52.240;6.002;2023-02-19T07:28:29;9.60;99.90
25951;DHT22;13748;52.240;6.002;2023-02-19T07:31:02;9.50;99.90
25951;DHT22;13748;52.240;6.002;2023-02-19T07:33:30;9.60;99.90
25951;DHT22;13748;52.240;6.002;2023-02-19T07:35:56;9.60;99.90
25951;DHT22;13748;52.240;6.002;2023-02-19T07:38:24;9.60;99.90
25951;DHT22;13748;52.240;6.002;2023-02-19T07:43:18;9.60;99.90
25951;DHT22;13748;52.240;6.002;2023-02-19T07:45:45;9.50;99.90
25951;DHT22;13748;52.240;6.002;2023-02-19T07:48:12;9.50;99.90
25951;DHT22;13748;52.240;6.002;2023-02-19T07:50:39;9.50;99.90
25951;DHT22;13748;52.240;6.002;2023-02-19T07:53:06;9.50;99.90
25951;DHT22;13748;52.240;6.002;2023-02-19T07:55:33;9.60;99.90
25951;DHT22;13748;52.240;6.002;2023-02-19T07:58:00;9.60;99.90
25951;DHT22;13748;52.240;6.002;2023-02-19T08:00:27;9.60;99.90
25951;DHT22;13748;52.240;6.002;2023-02-19T08:02:53;9.60;99.90
25951;DHT22;13748;52.240;6.002;2023-02-19T08:05:28;9.60;99.90
25951;DHT22;13748;52.240;6.002;2023-02-19T08:07:57;9.50;99.90
25951;DHT22;13748;52.240;6.002;2023-02-19T08:10:24;9.60;99.90
25951;DHT22;13748;52.240;6.002;2023-02-19T08:13:11;9.60;99.90
25951;DHT22;13748;52.240;6.002;2023-02-19T08:18:20;9.50;99.90
25951;DHT22;13748;52.240;6.002;2023-02-19T08:20:47;9.50;99.90
25951;DHT22;13748;52.240;6.002;2023-02-19T08:23:15;9.50;99.90
25951;DHT22;13748;52.240;6.002;2023-02-19T08:25:42;9.50;99.90
25951;DHT22;13748;52.240;6.002;2023-02-19T08:28:10;9.50;99.90
25951;DHT22;13748;52.240;6.002;2023-02-19T08:30:38;9.50;99.90
25951;DHT22;13748;52.240;6.002;2023-02-19T08:33:07;9.60;99.90
25951;DHT22;13748;52.240;6.002;2023-02-19T08:35:34;9.60;99.90
25951;DHT22;13748;52.240;6.002;2023-02-19T08:38:03;9.60;99.90
25951;DHT22;13748;52.240;6.002;2023-02-19T08:40:30;9.60;99.90
25951;DHT22;13748;52.240;6.002;2023-02-19T08:43:11;9.60;99.90
25951;DHT22;13748;52.240;6.002;2023-02-19T08:45:40;9.50;99.90
25951;DHT22;13748;52.240;6.002;2023-02-19T08:48:08;9.50;99.90
25951;DHT22;13748;52.240;6.002;2023-02-19T08:50:35;9.50;99.90
25951;DHT22;13748;52.240;6.002;2023-02-19T08:53:03;9.50;99.90
25951;DHT22;13748;52.240;6.002;2023-02-19T08:55:30;9.50;99.90
25951;DHT22;13748;52.240;6.002;2023-02-19T08:57:57;9.50;99.90
25951;DHT22;13748;52.240;6.002;2023-02-19T09:00:24;9.50;99.90
25951;DHT22;13748;52.240;6.002;2023-02-19T09:02:51;9.50;99.90
25951;DHT22;13748;52.240;6.002;2023-02-19T09:05:17;9.60;99.90
25951;DHT22;13748;52.240;6.002;2023-02-19T09:07:44;9.60;99.90
25951;DHT22;13748;52.240;6.002;2023-02-19T09:10:11;9.60;99.90
25951;DHT22;13748;52.240;6.002;2023-02-19T09:12:39;9.60;99.90
25951;DHT22;13748;52.240;6.002;2023-02-19T09:15:06;9.60;99.90
25951;DHT22;13748;52.240;6.002;2023-02-19T09:17:33;9.60;99.90
25951;DHT22;13748;52.240;6.002;2023-02-19T09:20:00;9.50;99.90
25951;DHT22;13748;52.240;6.002;2023-02-19T09:22:27;9.50;99.90
25951;DHT22;13748;52.240;6.002;2023-02-19T09:24:54;9.30;99.90
25951;DHT22;13748;52.240;6.002;2023-02-19T09:27:20;9.30;99.90
25951;DHT22;13748;52.240;6.002;2023-02-19T09:29:47;9.30;99.90
25951;DHT22;13748;52.240;6.002;2023-02-19T09:32:14;9.30;99.90
25951;DHT22;13748;52.240;6.002;2023-02-19T09:34:42;9.20;99.90
25951;DHT22;13748;52.240;6.002;2023-02-19T09:37:09;9.20;99.90
25951;DHT22;13748;52.240;6.002;2023-02-19T09:39:36;9.20;99.90
25951;DHT22;13748;52.240;6.002;2023-02-19T09:42:14;9.10;99.90
25951;DHT22;13748;52.240;6.002;2023-02-19T09:44:48;9.10;99.90
25951;DHT22;13748;52.240;6.002;2023-02-19T09:47:27;9.00;99.90
25951;DHT22;13748;52.240;6.002;2023-02-19T09:50:16;9.00;99.90
25951;DHT22;13748;52.240;6.002;2023-02-19T09:52:49;9.00;99.90
25951;DHT22;13748;52.240;6.002;2023-02-19T09:57:56;9.00;99.90
25951;DHT22;13748;52.240;6.002;2023-02-19T10:00:26;9.00;99.90
25951;DHT22;13748;52.240;6.002;2023-02-19T10:03:05;9.10;99.90
25951;DHT22;13748;52.240;6.002;2023-02-19T10:05:33;9.10;99.90
25951;DHT22;13748;52.240;6.002;2023-02-19T10:08:00;9.10;99.90
25951;DHT22;13748;52.240;6.002;2023-02-19T10:10:33;9.10;99.90
25951;DHT22;13748;52.240;6.002;2023-02-19T10:13:21;9.10;99.90
25951;DHT22;13748;52.240;6.002;2023-02-19T10:15:54;9.10;99.90
25951;DHT22;13748;52.240;6.002;2023-02-19T10:18:23;9.10;99.90
25951;DHT22;13748;52.240;6.002;2023-02-19T10:20:51;9.10;99.90
25951;DHT22;13748;52.240;6.002;2023-02-19T10:23:19;9.00;99.90
25951;DHT22;13748;52.240;6.002;2023-02-19T10:25:48;9.10;99.90
25951;DHT22;13748;52.240;6.002;2023-02-19T10:28:18;9.10;99.90
25951;DHT22;13748;52.240;6.002;2023-02-19T10:30:55;9.10;99.90
25951;DHT22;13748;52.240;6.002;2023-02-19T10:33:23;9.00;99.90
25951;DHT22;13748;52.240;6.002;2023-02-19T10:38:19;9.10;99.90
25951;DHT22;13748;52.240;6.002;2023-02-19T10:40:47;9.20;99.90
25951;DHT22;13748;52.240;6.002;2023-02-19T10:43:22;9.20;99.90
25951;DHT22;13748;52.240;6.002;2023-02-19T10:45:58;9.20;99.90
25951;DHT22;13748;52.240;6.002;2023-02-19T10:48:39;9.30;99.90
25951;DHT22;13748;52.240;6.002;2023-02-19T10:51:10;9.30;99.90
25951;DHT22;13748;52.240;6.002;2023-02-19T10:56:21;9.30;99.90
25951;DHT22;13748;52.240;6.002;2023-02-19T10:58:52;9.30;99.90
25951;DHT22;13748;52.240;6.002;2023-02-19T11:01:23;9.40;99.90
25951;DHT22;13748;52.240;6.002;2023-02-19T11:04:13;9.50;99.90
25951;DHT22;13748;52.240;6.002;2023-02-19T11:06:40;9.50;99.90
25951;DHT22;13748;52.240;6.002;2023-02-19T11:09:27;9.60;99.90
25951;DHT22;13748;52.240;6.002;2023-02-19T11:11:56;9.70;99.90
25951;DHT22;13748;52.240;6.002;2023-02-19T11:14:25;9.70;99.90
25951;DHT22;13748;52.240;6.002;2023-02-19T11:16:55;9.90;99.90
25951;DHT22;13748;52.240;6.002;2023-02-19T11:19:44;9.80;99.90
25951;DHT22;13748;52.240;6.002;2023-02-19T11:24:50;9.90;99.90
25951;DHT22;13748;52.240;6.002;2023-02-19T11:27:24;9.80;99.90
25951;DHT22;13748;52.240;6.002;2023-02-19T11:29:51;9.90;99.90
25951;DHT22;13748;52.240;6.002;2023-02-19T11:32:26;9.80;99.90
25951;DHT22;13748;52.240;6.002;2023-02-19T11:35:17;9.90;99.90
25951;DHT22;13748;52.240;6.002;2023-02-19T11:37:55;9.80;99.90
25951;DHT22;13748;52.240;6.002;2023-02-19T11:40:33;9.80;99.90
25951;DHT22;13748;52.240;6.002;2023-02-19T11:46:01;9.70;99.90
25951;DHT22;13748;52.240;6.002;2023-02-19T11:51:23;9.60;99.90
25951;DHT22;13748;52.240;6.002;2023-02-19T11:54:16;9.60;99.90
25951;DHT22;13748;52.240;6.002;2023-02-19T11:56:49;9.40;99.90
25951;DHT22;13748;52.240;6.002;2023-02-19T12:05:18;9.40;99.90
25951;DHT22;13748;52.240;6.002;2023-02-19T12:10:59;9.40;99.90
25951;DHT22;13748;52.240;6.002;2023-02-19T12:17:23;9.40;99.90
25951;DHT22;13748;52.240;6.002;2023-02-19T12:20:03;9.40;99.90
25951;DHT22;13748;52.240;6.002;2023-02-19T12:25:40;9.40;99.90
25951;DHT22;13748;52.240;6.002;2023-02-19T12:36:45;9.50;99.90
25951;DHT22;13748;52.240;6.002;2023-02-19T12:45:39;9.70;99.90
25951;DHT22;13748;52.240;6.002;2023-02-19T12:50:43;9.60;99.90
25951;DHT22;13748;52.240;6.002;2023-02-19T12:56:00;9.60;99.90
25951;DHT22;13748;52.240;6.002;2023-02-19T12:58:37;9.60;99.90
25951;DHT22;13748;52.240;6.002;2023-02-19T13:01:06;9.60;99.90
25951;DHT22;13748;52.240;6.002;2023-02-19T13:03:46;9.60;99.90
25951;DHT22;13748;52.240;6.002;2023-02-19T13:06:39;9.80;99.90
25951;DHT22;13748;52.240;6.002;2023-02-19T13:12:07;9.60;99.90
25951;DHT22;13748;52.240;6.002;2023-02-19T13:14:50;9.60;99.90
25951;DHT22;13748;52.240;6.002;2023-02-19T13:19:49;9.50;99.90
25951;DHT22;13748;52.240;6.002;2023-02-19T13:22:31;9.60;99.90
25951;DHT22;13748;52.240;6.002;2023-02-19T13:25:19;9.60;99.90
25951;DHT22;13748;52.240;6.002;2023-02-19T13:28:07;9.60;99.90
25951;DHT22;13748;52.240;6.002;2023-02-19T13:31:00;9.60;99.90
25951;DHT22;13748;52.240;6.002;2023-02-19T13:33:39;9.60;99.90
25951;DHT22;13748;52.240;6.002;2023-02-19T13:36:22;9.60;99.90
25951;DHT22;13748;52.240;6.002;2023-02-19T13:38:54;9.60;99.90
25951;DHT22;13748;52.240;6.002;2023-02-19T13:41:40;9.60;99.90
25951;DHT22;13748;52.240;6.002;2023-02-19T13:44:19;9.70;99.90
25951;DHT22;13748;52.240;6.002;2023-02-19T13:46:48;9.70;99.90
25951;DHT22;13748;52.240;6.002;2023-02-19T13:51:56;9.70;99.90
25951;DHT22;13748;52.240;6.002;2023-02-19T13:54:31;9.70;99.90
25951;DHT22;13748;52.240;6.002;2023-02-19T13:59:50;9.80;99.90
25951;DHT22;13748;52.240;6.002;2023-02-19T14:09:54;9.80;99.90
25951;DHT22;13748;52.240;6.002;2023-02-19T14:12:33;9.80;99.90
25951;DHT22;13748;52.240;6.002;2023-02-19T14:18:39;9.80;99.90
25951;DHT22;13748;52.240;6.002;2023-02-19T14:21:17;9.80;99.90
25951;DHT22;13748;52.240;6.002;2023-02-19T14:23:51;9.90;99.90
25951;DHT22;13748;52.240;6.002;2023-02-19T14:26:19;9.80;99.90
25951;DHT22;13748;52.240;6.002;2023-02-19T14:28:50;9.80;99.90
25951;DHT22;13748;52.240;6.002;2023-02-19T14:31:30;9.80;99.90
25951;DHT22;13748;52.240;6.002;2023-02-19T14:34:03;9.80;99.90
25951;DHT22;13748;52.240;6.002;2023-02-19T14:36:37;9.80;99.90
25951;DHT22;13748;52.240;6.002;2023-02-19T14:39:20;9.90;99.90
25951;DHT22;13748;52.240;6.002;2023-02-19T14:42:10;9.90;99.90
25951;DHT22;13748;52.240;6.002;2023-02-19T14:47:18;10.00;99.90
25951;DHT22;13748;52.240;6.002;2023-02-19T14:49:47;10.00;99.90
25951;DHT22;13748;52.240;6.002;2023-02-19T14:57:26;10.00;99.90
25951;DHT22;13748;52.240;6.002;2023-02-19T14:59:59;10.00;99.90
25951;DHT22;13748;52.240;6.002;2023-02-19T15:02:29;10.00;99.90
25951;DHT22;13748;52.240;6.002;2023-02-19T15:04:59;9.90;99.90
25951;DHT22;13748;52.240;6.002;2023-02-19T15:07:29;9.90;99.90
25951;DHT22;13748;52.240;6.002;2023-02-19T15:10:00;9.90;99.90
25951;DHT22;13748;52.240;6.002;2023-02-19T15:12:51;9.90;99.90
25951;DHT22;13748;52.240;6.002;2023-02-19T15:15:24;9.90;99.90
25951;DHT22;13748;52.240;6.002;2023-02-19T15:18:25;9.80;99.90
25951;DHT22;13748;52.240;6.002;2023-02-19T15:21:05;9.80;99.90
25951;DHT22;13748;52.240;6.002;2023-02-19T15:23:33;9.80;99.90
25951;DHT22;13748;52.240;6.002;2023-02-19T15:26:47;9.70;99.90
25951;DHT22;13748;52.240;6.002;2023-02-19T15:29:23;9.70;99.90
25951;DHT22;13748;52.240;6.002;2023-02-19T15:31:58;9.70;99.90
25951;DHT22;13748;52.240;6.002;2023-02-19T15:34:58;9.60;99.90
25951;DHT22;13748;52.240;6.002;2023-02-19T15:37:28;9.60;99.90
25951;DHT22;13748;52.240;6.002;2023-02-19T15:40:05;9.60;99.90
25951;DHT22;13748;52.240;6.002;2023-02-19T15:42:49;9.60;99.90
25951;DHT22;13748;52.240;6.002;2023-02-19T15:45:46;9.60;99.90
25951;DHT22;13748;52.240;6.002;2023-02-19T15:48:26;9.50;99.90
25951;DHT22;13748;52.240;6.002;2023-02-19T15:51:23;9.50;99.90
25951;DHT22;13748;52.240;6.002;2023-02-19T15:53:56;9.50;99.90
25951;DHT22;13748;52.240;6.002;2023-02-19T15:56:38;9.40;99.90
25951;DHT22;13748;52.240;6.002;2023-02-19T15:59:23;9.40;99.90
25951;DHT22;13748;52.240;6.002;2023-02-19T16:01:58;9.30;99.90
25951;DHT22;13748;52.240;6.002;2023-02-19T16:04:29;9.30;99.90
25951;DHT22;13748;52.240;6.002;2023-02-19T16:07:02;9.30;99.90
25951;DHT22;13748;52.240;6.002;2023-02-19T16:09:36;9.30;99.90
25951;DHT22;13748;52.240;6.002;2023-02-19T16:12:43;9.30;99.90
25951;DHT22;13748;52.240;6.002;2023-02-19T16:15:22;9.30;99.90
25951;DHT22;13748;52.240;6.002;2023-02-19T16:17:57;9.30;99.90
25951;DHT22;13748;52.240;6.002;2023-02-19T16:20:38;9.30;99.90
25951;DHT22;13748;52.240;6.002;2023-02-19T16:23:15;9.20;99.90
25951;DHT22;13748;52.240;6.002;2023-02-19T16:25:57;9.20;99.90
25951;DHT22;13748;52.240;6.002;2023-02-19T16:28:37;9.20;99.90
25951;DHT22;13748;52.240;6.002;2023-02-19T16:31:07;9.10;99.90
25951;DHT22;13748;52.240;6.002;2023-02-19T16:33:52;9.20;99.90
25951;DHT22;13748;52.240;6.002;2023-02-19T16:36:38;9.30;99.90
25951;DHT22;13748;52.240;6.002;2023-02-19T16:39:15;9.20;99.90
25951;DHT22;13748;52.240;6.002;2023-02-19T16:41:57;9.20;99.90
25951;DHT22;13748;52.240;6.002;2023-02-19T16:44:29;9.10;99.90
25951;DHT22;13748;52.240;6.002;2023-02-19T16:47:04;9.00;99.90
25951;DHT22;13748;52.240;6.002;2023-02-19T16:49:32;9.00;99.90
25951;DHT22;13748;52.240;6.002;2023-02-19T16:51:59;9.00;99.90
25951;DHT22;13748;52.240;6.002;2023-02-19T16:54:30;8.40;99.90
25951;DHT22;13748;52.240;6.002;2023-02-19T16:56:58;9.00;99.90
25951;DHT22;13748;52.240;6.002;2023-02-19T16:59:38;9.10;99.90
25951;DHT22;13748;52.240;6.002;2023-02-19T17:02:13;9.00;99.90
25951;DHT22;13748;52.240;6.002;2023-02-19T17:04:43;8.80;99.90
25951;DHT22;13748;52.240;6.002;2023-02-19T17:07:15;8.80;99.90
25951;DHT22;13748;52.240;6.002;2023-02-19T17:09:42;8.70;99.90
25951;DHT22;13748;52.240;6.002;2023-02-19T17:12:15;8.70;99.90
25951;DHT22;13748;52.240;6.002;2023-02-19T17:14:48;8.70;99.90
25951;DHT22;13748;52.240;6.002;2023-02-19T17:17:18;8.70;99.90
25951;DHT22;13748;52.240;6.002;2023-02-19T17:19:47;8.70;99.90
25951;DHT22;13748;52.240;6.002;2023-02-19T17:22:14;8.60;99.90
25951;DHT22;13748;52.240;6.002;2023-02-19T17:24:43;8.60;99.90
25951;DHT22;13748;52.240;6.002;2023-02-19T17:27:12;8.60;99.90
25951;DHT22;13748;52.240;6.002;2023-02-19T17:29:42;8.60;99.90
25951;DHT22;13748;52.240;6.002;2023-02-19T17:32:11;8.70;99.90
25951;DHT22;13748;52.240;6.002;2023-02-19T17:34:40;8.60;99.90
25951;DHT22;13748;52.240;6.002;2023-02-19T17:37:08;8.60;99.90
25951;DHT22;13748;52.240;6.002;2023-02-19T17:39:35;8.50;99.90
25951;DHT22;13748;52.240;6.002;2023-02-19T17:42:02;8.50;99.90
25951;DHT22;13748;52.240;6.002;2023-02-19T17:44:31;8.50;99.90
25951;DHT22;13748;52.240;6.002;2023-02-19T17:47:01;8.50;99.90
25951;DHT22;13748;52.240;6.002;2023-02-19T17:49:28;8.50;99.90
25951;DHT22;13748;52.240;6.002;2023-02-19T17:51:55;8.40;99.90
25951;DHT22;13748;52.240;6.002;2023-02-19T17:54:22;8.50;99.90
25951;DHT22;13748;52.240;6.002;2023-02-19T17:56:49;8.40;99.90
25951;DHT22;13748;52.240;6.002;2023-02-19T17:59:16;8.40;99.90